Time;durP1;ratioP1;P1;durP2;ratioP2;P2;SDS_P1;SDS_P2;PMS_P1;PMS_P2;Temp;Humidity;BMP_temperature;BMP_pressure;BME280_temperature;BME280_humidity;BME280_pressure;Samples;Min_cycle;Max_cycle;Signal;HPM_P1;HPM_P2
2021/12/13 00:02:13;;;;;;;7.30;6.57;;;9.50;96.40;;;;;;958051;148;27298;-74
2021/12/13 00:04:39;;;;;;;7.53;6.77;;;9.50;96.40;;;;;;948712;149;27313;-74
2021/12/13 00:07:06;;;;;;;7.33;6.40;;;9.50;96.40;;;;;;934926;153;27429;-74
2021/12/13 00:09:33;;;;;;;8.50;6.80;;;9.50;96.40;;;;;;944535;148;27382;-74
2021/12/13 00:11:59;;;;;;;6.90;6.20;;;9.50;96.40;;;;;;942609;149;27896;-75
2021/12/13 00:14:27;;;;;;;7.20;6.33;;;9.50;96.40;;;;;;947678;151;27333;-75
2021/12/13 00:16:58;;;;;;;7.37;6.67;;;9.50;96.40;;;;;;938470;151;27902;-75
2021/12/13 00:19:25;;;;;;;8.37;6.77;;;9.50;96.40;;;;;;947268;151;27315;-75
2021/12/13 00:21:57;;;;;;;7.17;6.57;;;9.50;96.40;;;;;;955886;148;27246;-75
2021/12/13 00:24:27;;;;;;;6.87;6.27;;;9.60;96.40;;;;;;946851;151;27896;-74
2021/12/13 00:26:53;;;;;;;7.63;6.43;;;9.60;96.40;;;;;;942574;149;27247;-74
2021/12/13 00:29:20;;;;;;;6.77;5.90;;;9.60;96.30;;;;;;948218;149;27413;-75
2021/12/13 00:31:49;;;;;;;7.33;6.63;;;9.50;96.30;;;;;;939637;151;27378;-75
2021/12/13 00:34:22;;;;;;;6.70;6.00;;;9.60;96.30;;;;;;940573;149;27317;-75
2021/12/13 00:36:51;;;;;;;7.80;6.43;;;9.50;96.30;;;;;;953167;149;27298;-75
2021/12/13 00:39:26;;;;;;;7.23;6.53;;;9.60;96.70;;;;;;947614;151;27261;-75
2021/12/13 00:41:53;;;;;;;7.03;6.33;;;9.50;96.40;;;;;;937332;151;27354;-74
2021/12/13 00:44:28;;;;;;;7.07;6.33;;;9.50;96.40;;;;;;943066;150;27322;-74
2021/12/13 00:46:55;;;;;;;7.13;6.27;;;9.50;96.50;;;;;;939400;151;27365;-74
2021/12/13 00:49:21;;;;;;;7.40;6.53;;;9.50;96.50;;;;;;960383;149;27380;-74
2021/12/13 00:51:48;;;;;;;7.07;6.37;;;9.50;96.70;;;;;;939481;152;27315;-74
2021/12/13 00:54:14;;;;;;;6.83;6.13;;;9.50;96.70;;;;;;934484;152;27258;-74
2021/12/13 00:57:08;;;;;;;7.20;6.33;;;9.50;96.80;;;;;;936109;150;27482;-74
2021/12/13 00:59:31;;;;;;;7.80;6.20;;;9.60;96.90;;;;;;950179;149;27311;-74
2021/12/13 01:02:01;;;;;;;8.07;6.47;;;9.60;96.90;;;;;;941296;151;27392;-74
2021/12/13 01:05:01;;;;;;;6.67;6.07;;;9.60;96.90;;;;;;949005;147;27409;-74
2021/12/13 01:07:34;;;;;;;7.57;6.47;;;9.60;96.90;;;;;;960636;147;27729;-74
2021/12/13 01:10:25;;;;;;;6.83;6.13;;;9.60;96.90;;;;;;950000;149;27849;-74
2021/12/13 01:12:51;;;;;;;5.80;5.30;;;9.60;96.90;;;;;;962398;147;27261;-75
2021/12/13 01:15:27;;;;;;;7.33;6.63;;;9.60;96.80;;;;;;961561;149;27267;-75
2021/12/13 01:18:00;;;;;;;6.60;6.00;;;9.60;96.90;;;;;;954556;149;27288;-75
2021/12/13 01:20:25;;;;;;;7.27;6.50;;;9.60;96.90;;;;;;952535;147;27831;-75
2021/12/13 01:22:50;;;;;;;6.87;6.27;;;9.60;96.90;;;;;;959706;147;27314;-75
2021/12/13 01:25:25;;;;;;;7.03;6.43;;;9.60;96.90;;;;;;943897;150;27267;-75
2021/12/13 01:27:59;;;;;;;7.23;6.53;;;9.70;96.90;;;;;;964967;147;27367;-75
2021/12/13 01:30:29;;;;;;;7.40;6.60;;;9.70;96.90;;;;;;935410;153;27407;-75
2021/12/13 01:32:56;;;;;;;7.03;6.33;;;9.70;96.80;;;;;;940958;151;27458;-74
2021/12/13 01:35:22;;;;;;;7.10;6.43;;;9.70;96.90;;;;;;940752;149;27404;-74
2021/12/13 01:37:51;;;;;;;7.47;6.77;;;9.70;96.80;;;;;;934074;151;27330;-74
2021/12/13 01:40:15;;;;;;;6.83;6.23;;;9.70;97.20;;;;;;933783;152;27322;-74
2021/12/13 01:42:42;;;;;;;6.37;5.77;;;9.70;96.90;;;;;;957955;149;27308;-74
2021/12/13 01:45:11;;;;;;;7.53;6.70;;;9.70;97.00;;;;;;958459;147;27339;-74
2021/12/13 01:47:38;;;;;;;7.60;6.40;;;9.70;97.00;;;;;;974826;146;27277;-75
2021/12/13 01:50:10;;;;;;;8.87;7.10;;;9.70;97.00;;;;;;963022;147;27383;-75
2021/12/13 01:52:37;;;;;;;9.10;7.10;;;9.70;97.10;;;;;;967647;145;27365;-75
2021/12/13 01:55:09;;;;;;;7.37;6.67;;;9.70;97.10;;;;;;964394;146;27282;-75
2021/12/13 01:58:20;;;;;;;8.03;6.50;;;9.70;97.20;;;;;;965232;143;27312;-75
2021/12/13 02:00:08;;;;;;;7.33;6.63;;;9.80;97.20;;;;;;962107;147;27815;-74
2021/12/13 02:02:38;;;;;;;7.30;6.37;;;9.80;97.20;;;;;;974889;147;27359;-74
2021/12/13 02:05:07;;;;;;;7.10;6.50;;;9.70;97.10;;;;;;972811;143;27254;-74
2021/12/13 02:07:48;;;;;;;6.73;6.13;;;9.80;97.10;;;;;;974527;143;27369;-74
2021/12/13 02:10:17;;;;;;;6.90;6.20;;;9.80;97.20;;;;;;971544;146;27946;-74
2021/12/13 02:12:44;;;;;;;7.20;6.03;;;9.80;96.90;;;;;;974155;143;27253;-74
2021/12/13 02:17:55;;;;;;;7.40;6.70;;;9.80;97.30;;;;;;964955;147;27423;-74
2021/12/13 02:20:22;;;;;;;6.67;6.07;;;9.80;97.30;;;;;;975299;143;27382;-74
2021/12/13 02:22:51;;;;;;;7.27;6.57;;;9.80;97.40;;;;;;975776;145;27270;-74
2021/12/13 02:25:26;;;;;;;7.90;7.13;;;9.80;97.40;;;;;;977461;146;27257;-74
2021/12/13 02:27:53;;;;;;;6.83;6.10;;;9.90;97.40;;;;;;972388;145;27302;-75
2021/12/13 02:30:19;;;;;;;6.50;5.90;;;9.90;97.30;;;;;;972619;147;27824;-75
2021/12/13 02:32:46;;;;;;;7.33;6.63;;;9.90;97.40;;;;;;967114;147;27311;-75
2021/12/13 02:35:12;;;;;;;7.43;6.73;;;9.90;97.30;;;;;;977383;146;27277;-74
2021/12/13 02:37:39;;;;;;;7.57;6.83;;;9.90;97.20;;;;;;978363;143;27303;-74
2021/12/13 02:40:06;;;;;;;8.07;7.23;;;9.90;97.20;;;;;;998903;143;27681;-74
2021/12/13 02:42:32;;;;;;;7.87;7.03;;;9.90;97.20;;;;;;971152;145;27822;-74
2021/12/13 02:45:04;;;;;;;7.97;7.03;;;9.90;97.30;;;;;;973523;143;27378;-74
2021/12/13 02:47:28;;;;;;;7.53;6.70;;;9.90;97.30;;;;;;972037;142;27355;-74
2021/12/13 02:49:55;;;;;;;8.17;6.97;;;9.90;97.30;;;;;;989118;142;27327;-74
2021/12/13 02:52:21;;;;;;;7.37;6.67;;;9.90;97.30;;;;;;972730;147;27321;-74
2021/12/13 02:54:51;;;;;;;7.70;7.00;;;9.90;97.40;;;;;;971471;147;27327;-73
2021/12/13 02:57:17;;;;;;;8.00;7.20;;;9.90;97.40;;;;;;986264;142;27363;-74
2021/12/13 02:59:50;;;;;;;6.97;6.33;;;10.00;97.40;;;;;;968744;142;27291;-74
2021/12/13 03:02:19;;;;;;;8.90;7.03;;;9.90;97.40;;;;;;968228;147;27267;-74
2021/12/13 03:04:46;;;;;;;7.93;6.40;;;9.90;97.30;;;;;;975256;142;27322;-74
2021/12/13 03:07:15;;;;;;;8.37;6.80;;;10.00;97.30;;;;;;967387;147;27331;-74
2021/12/13 03:09:42;;;;;;;7.97;7.10;;;9.90;97.70;;;;;;962556;147;27422;-74
2021/12/13 03:12:09;;;;;;;8.27;7.20;;;10.00;97.40;;;;;;977558;145;27793;-74
2021/12/13 03:14:35;;;;;;;7.73;7.03;;;10.00;97.40;;;;;;976473;146;27790;-74
2021/12/13 03:17:08;;;;;;;7.67;6.87;;;10.00;97.50;;;;;;978549;142;27742;-73
2021/12/13 03:19:40;;;;;;;8.33;7.33;;;10.00;97.50;;;;;;966399;147;27333;-73
2021/12/13 03:22:24;;;;;;;7.73;6.87;;;10.00;97.60;;;;;;966236;147;27248;-75
2021/12/13 03:24:51;;;;;;;7.63;6.73;;;10.00;97.50;;;;;;967134;142;27454;-75
2021/12/13 03:27:24;;;;;;;7.60;6.90;;;10.00;97.50;;;;;;961272;145;27266;-75
2021/12/13 03:30:02;;;;;;;8.00;7.20;;;10.00;97.50;;;;;;952547;146;27240;-75
2021/12/13 03:32:31;;;;;;;7.87;7.00;;;10.00;97.50;;;;;;974135;146;27221;-75
2021/12/13 03:35:10;;;;;;;7.43;6.73;;;10.00;97.50;;;;;;977870;142;27351;-75
2021/12/13 03:37:36;;;;;;;7.97;7.17;;;10.00;97.50;;;;;;979408;142;27280;-75
2021/12/13 03:40:06;;;;;;;9.33;7.30;;;10.00;97.50;;;;;;976176;147;27254;-75
2021/12/13 03:42:32;;;;;;;8.37;7.57;;;10.00;97.50;;;;;;985689;145;27351;-75
2021/12/13 03:44:59;;;;;;;8.00;7.20;;;10.00;97.50;;;;;;970971;146;27245;-75
2021/12/13 03:47:26;;;;;;;7.87;7.13;;;10.00;97.60;;;;;;984726;142;27969;-75
2021/12/13 03:49:52;;;;;;;7.67;6.90;;;10.00;97.60;;;;;;979804;144;27294;-75
2021/12/13 03:52:19;;;;;;;8.30;7.50;;;10.00;97.60;;;;;;971357;144;27294;-75
2021/12/13 03:54:45;;;;;;;9.23;7.23;;;10.00;97.60;;;;;;971993;147;27243;-75
2021/12/13 03:57:12;;;;;;;7.70;6.97;;;10.00;97.50;;;;;;983170;144;27318;-75
2021/12/13 03:59:38;;;;;;;8.80;7.90;;;10.00;97.50;;;;;;971040;143;27373;-75
2021/12/13 04:02:05;;;;;;;8.50;7.50;;;10.00;97.50;;;;;;980283;146;27277;-74
2021/12/13 04:04:32;;;;;;;8.27;7.07;;;10.10;97.60;;;;;;979136;144;27379;-75
2021/12/13 04:06:58;;;;;;;8.93;8.03;;;10.00;97.50;;;;;;967288;147;27381;-75
2021/12/13 04:09:25;;;;;;;8.67;7.77;;;10.00;97.50;;;;;;970173;144;27308;-75
2021/12/13 04:11:51;;;;;;;7.83;7.03;;;10.00;97.50;;;;;;962095;147;27420;-76
2021/12/13 04:14:23;;;;;;;9.20;8.17;;;10.00;97.70;;;;;;968358;146;27270;-76
2021/12/13 04:16:49;;;;;;;8.67;7.77;;;10.00;97.50;;;;;;976259;144;27280;-76
2021/12/13 04:19:14;;;;;;;10.90;7.70;;;10.00;97.50;;;;;;964753;145;27333;-76
2021/12/13 04:21:52;;;;;;;9.13;7.57;;;10.00;97.50;;;;;;976990;145;27251;-76
2021/12/13 04:24:22;;;;;;;8.67;7.77;;;10.00;97.60;;;;;;970746;146;27284;-75
2021/12/13 04:26:48;;;;;;;9.57;8.57;;;10.00;97.80;;;;;;974303;146;27262;-76
2021/12/13 04:29:15;;;;;;;8.03;7.30;;;10.00;97.60;;;;;;978448;144;27371;-75
2021/12/13 04:31:41;;;;;;;8.97;8.07;;;10.00;97.60;;;;;;984552;144;27399;-75
2021/12/13 04:34:08;;;;;;;8.93;7.20;;;10.00;97.70;;;;;;988707;144;27251;-75
2021/12/13 04:36:40;;;;;;;8.27;7.47;;;9.90;97.70;;;;;;977019;145;27329;-75
2021/12/13 04:39:19;;;;;;;7.93;7.13;;;10.00;97.90;;;;;;974500;145;27275;-75
2021/12/13 04:41:45;;;;;;;7.70;6.90;;;10.00;97.80;;;;;;980594;145;27267;-75
2021/12/13 04:44:33;;;;;;;9.03;8.13;;;9.90;97.80;;;;;;981728;144;27286;-75
2021/12/13 04:47:00;;;;;;;8.03;7.23;;;10.00;97.90;;;;;;976510;144;27305;-75
2021/12/13 04:49:26;;;;;;;8.17;7.03;;;9.90;97.90;;;;;;994270;142;27276;-75
2021/12/13 04:51:56;;;;;;;8.50;7.60;;;9.90;98.00;;;;;;987138;145;27350;-75
2021/12/13 04:54:22;;;;;;;7.43;6.67;;;9.90;98.00;;;;;;988874;142;27423;-75
2021/12/13 04:56:49;;;;;;;8.17;7.37;;;9.90;98.00;;;;;;979718;145;27272;-75
2021/12/13 04:59:15;;;;;;;8.33;7.43;;;9.90;98.00;;;;;;992359;142;27254;-75
2021/12/13 05:01:46;;;;;;;7.60;6.80;;;9.90;98.00;;;;;;990216;145;27272;-75
2021/12/13 05:04:12;;;;;;;8.63;6.47;;;9.90;98.00;;;;;;999732;142;27312;-75
2021/12/13 05:06:38;;;;;;;9.50;8.00;;;9.90;98.10;;;;;;977752;145;27832;-75
2021/12/13 05:09:05;;;;;;;7.70;6.47;;;9.90;98.10;;;;;;988353;145;27298;-75
2021/12/13 05:11:34;;;;;;;8.30;6.93;;;9.90;98.20;;;;;;982173;145;27360;-75
2021/12/13 05:14:01;;;;;;;7.80;7.00;;;9.90;98.30;;;;;;991624;144;27264;-75
2021/12/13 05:16:27;;;;;;;6.80;6.17;;;9.90;98.30;;;;;;988581;142;27373;-75
2021/12/13 05:18:54;;;;;;;7.47;6.70;;;10.00;98.50;;;;;;985594;145;27256;-75
2021/12/13 05:21:24;;;;;;;7.30;6.60;;;10.00;98.40;;;;;;981651;142;27256;-75
2021/12/13 05:23:50;;;;;;;8.40;7.60;;;10.00;98.40;;;;;;994492;142;27263;-75
2021/12/13 05:26:16;;;;;;;7.37;6.67;;;10.00;98.40;;;;;;986638;145;27283;-75
2021/12/13 05:28:44;;;;;;;7.97;7.17;;;10.00;98.40;;;;;;994525;142;27310;-75
2021/12/13 05:31:10;;;;;;;7.97;7.17;;;10.00;98.50;;;;;;986189;142;27242;-75
2021/12/13 05:33:36;;;;;;;8.43;6.47;;;10.00;98.50;;;;;;984757;144;27223;-75
2021/12/13 05:36:05;;;;;;;7.83;7.03;;;10.10;98.40;;;;;;988997;143;27288;-75
2021/12/13 05:38:34;;;;;;;8.70;7.77;;;10.10;98.40;;;;;;990842;145;27286;-75
2021/12/13 05:41:01;;;;;;;8.60;7.73;;;10.10;98.30;;;;;;994322;142;28500;-75
2021/12/13 05:43:40;;;;;;;8.27;7.47;;;10.10;98.20;;;;;;994987;142;27280;-75
2021/12/13 05:46:09;;;;;;;8.10;7.30;;;10.10;98.20;;;;;;987164;142;27233;-75
2021/12/13 05:48:36;;;;;;;9.03;7.93;;;10.10;98.10;;;;;;974088;145;27450;-75
2021/12/13 05:51:02;;;;;;;8.57;7.77;;;10.10;98.20;;;;;;982021;143;27371;-75
2021/12/13 05:53:29;;;;;;;8.87;7.53;;;10.10;98.20;;;;;;971684;144;27337;-75
2021/12/13 05:56:04;;;;;;;8.67;7.63;;;10.10;98.20;;;;;;974144;147;27268;-75
2021/12/13 05:58:34;;;;;;;8.53;7.63;;;10.10;98.30;;;;;;972421;143;27611;-75
2021/12/13 06:01:00;;;;;;;8.70;7.80;;;10.00;98.20;;;;;;983298;143;27306;-75
2021/12/13 06:03:33;;;;;;;8.73;7.90;;;10.00;98.20;;;;;;972105;143;27275;-75
2021/12/13 06:06:05;;;;;;;7.93;7.13;;;10.00;98.20;;;;;;982767;143;27206;-75
2021/12/13 06:08:32;;;;;;;8.13;7.33;;;10.00;98.20;;;;;;970988;145;27787;-75
2021/12/13 06:10:58;;;;;;;9.27;8.03;;;10.00;98.30;;;;;;976015;146;27273;-75
2021/12/13 06:13:43;;;;;;;9.20;8.30;;;10.00;98.30;;;;;;977231;146;27280;-75
2021/12/13 06:16:25;;;;;;;9.27;8.27;;;10.00;98.30;;;;;;986742;143;27246;-75
2021/12/13 06:19:03;;;;;;;10.47;8.37;;;10.00;98.30;;;;;;976164;143;27250;-75
2021/12/13 06:21:54;;;;;;;9.70;8.50;;;10.00;98.30;;;;;;977253;143;27268;-75
2021/12/13 06:24:30;;;;;;;9.93;8.93;;;10.00;98.30;;;;;;975607;143;27261;-74
2021/12/13 06:27:06;;;;;;;10.60;8.73;;;9.90;98.30;;;;;;969109;147;27290;-74
2021/12/13 06:29:41;;;;;;;9.77;8.43;;;9.90;98.40;;;;;;988523;143;27375;-74
2021/12/13 06:32:07;;;;;;;8.87;7.87;;;9.90;98.50;;;;;;967738;147;27398;-74
2021/12/13 06:34:34;;;;;;;11.43;8.50;;;9.90;98.50;;;;;;979501;143;27330;-74
2021/12/13 06:37:01;;;;;;;9.37;8.37;;;9.90;98.60;;;;;;976223;143;27302;-74
2021/12/13 06:39:30;;;;;;;9.33;8.13;;;10.00;98.60;;;;;;980485;143;27290;-74
2021/12/13 06:41:58;;;;;;;13.77;9.20;;;9.90;98.70;;;;;;981937;143;27315;-74
2021/12/13 06:44:26;;;;;;;8.97;8.03;;;9.90;98.70;;;;;;973751;147;27280;-74
2021/12/13 06:46:53;;;;;;;9.43;8.43;;;10.00;98.70;;;;;;978670;143;27396;-74
2021/12/13 06:49:22;;;;;;;9.07;7.93;;;10.00;98.70;;;;;;984916;145;27327;-75
2021/12/13 06:51:52;;;;;;;9.57;8.57;;;10.00;98.70;;;;;;989662;145;27360;-75
2021/12/13 06:54:33;;;;;;;9.20;8.30;;;10.00;98.70;;;;;;989443;145;27369;-75
2021/12/13 06:57:15;;;;;;;8.57;7.43;;;10.00;98.70;;;;;;970254;145;27439;-75
2021/12/13 06:59:59;;;;;;;8.63;7.70;;;10.00;98.60;;;;;;989809;142;27255;-75
2021/12/13 07:02:26;;;;;;;8.60;7.40;;;10.00;98.60;;;;;;991408;142;27353;-74
2021/12/13 07:04:55;;;;;;;8.67;7.47;;;10.00;98.60;;;;;;987389;145;27248;-74
2021/12/13 07:07:22;;;;;;;9.30;7.30;;;10.00;98.70;;;;;;988737;143;27737;-74
2021/12/13 07:09:57;;;;;;;8.77;7.87;;;10.00;98.80;;;;;;988917;145;27301;-74
2021/12/13 07:12:24;;;;;;;9.53;8.30;;;10.00;98.80;;;;;;989598;145;27344;-74
2021/12/13 07:14:50;;;;;;;13.57;8.07;;;10.00;98.80;;;;;;989521;145;27252;-74
2021/12/13 07:17:33;;;;;;;9.77;8.33;;;10.00;98.80;;;;;;998060;142;27357;-74
2021/12/13 07:19:59;;;;;;;11.13;8.07;;;10.00;98.80;;;;;;985521;142;27311;-74
2021/12/13 07:22:25;;;;;;;10.07;8.10;;;10.00;98.80;;;;;;990905;142;27268;-74
2021/12/13 07:24:52;;;;;;;10.63;8.57;;;10.00;98.90;;;;;;988608;145;27284;-74
2021/12/13 07:27:24;;;;;;;8.73;7.80;;;10.00;99.20;;;;;;987522;145;27395;-74
2021/12/13 07:29:53;;;;;;;10.57;7.77;;;10.00;98.90;;;;;;988390;145;27780;-74
2021/12/13 07:32:32;;;;;;;10.07;7.90;;;10.10;98.90;;;;;;982418;142;27226;-74
2021/12/13 07:35:20;;;;;;;8.97;8.03;;;10.10;99.00;;;;;;988943;142;27210;-74
2021/12/13 07:37:58;;;;;;;8.50;7.60;;;10.10;98.90;;;;;;988007;142;27388;-76
2021/12/13 07:40:33;;;;;;;8.80;7.40;;;10.10;98.80;;;;;;988400;142;27373;-75
2021/12/13 07:43:05;;;;;;;8.33;7.63;;;10.20;98.80;;;;;;986553;145;27264;-74
2021/12/13 07:45:52;;;;;;;15.27;7.20;;;10.10;98.90;;;;;;989080;145;27248;-74
2021/12/13 07:48:17;;;;;;;8.07;7.17;;;10.20;99.00;;;;;;983868;145;27674;-74
2021/12/13 07:50:44;;;;;;;8.70;7.40;;;10.20;99.00;;;;;;973775;143;27390;-74
2021/12/13 07:53:10;;;;;;;8.50;7.03;;;10.20;99.20;;;;;;946998;150;27269;-74
2021/12/13 07:55:37;;;;;;;8.07;7.27;;;10.20;99.20;;;;;;981890;143;27312;-74
2021/12/13 07:58:04;;;;;;;8.87;7.30;;;10.30;99.30;;;;;;992998;143;27270;-74
2021/12/13 08:00:36;;;;;;;8.20;7.40;;;10.30;99.30;;;;;;976433;145;27344;-74
2021/12/13 08:03:09;;;;;;;8.47;6.77;;;10.30;99.30;;;;;;979024;143;27245;-74
2021/12/13 08:05:38;;;;;;;9.10;7.23;;;10.40;99.30;;;;;;975726;143;27195;-74
2021/12/13 08:08:02;;;;;;;7.10;6.30;;;10.40;99.30;;;;;;940322;150;27352;-74
2021/12/13 08:10:31;;;;;;;7.50;6.70;;;10.40;99.30;;;;;;985289;143;27246;-74
2021/12/13 08:13:02;;;;;;;8.27;7.37;;;10.40;99.40;;;;;;974886;143;27243;-74
2021/12/13 08:15:27;;;;;;;7.97;7.07;;;10.50;99.40;;;;;;975577;143;27409;-74
2021/12/13 08:17:57;;;;;;;7.73;7.03;;;10.50;99.40;;;;;;984367;143;27416;-74
2021/12/13 08:20:26;;;;;;;7.37;6.67;;;10.60;99.40;;;;;;972741;146;27397;-74
2021/12/13 08:22:54;;;;;;;7.53;6.80;;;10.60;99.30;;;;;;971797;147;27355;-74
2021/12/13 08:25:21;;;;;;;8.30;7.50;;;10.70;99.30;;;;;;957692;147;27282;-74
2021/12/13 08:27:54;;;;;;;8.07;7.33;;;10.70;99.20;;;;;;970852;146;27206;-74
2021/12/13 08:30:23;;;;;;;8.70;7.80;;;10.70;99.20;;;;;;977070;143;27650;-74
2021/12/13 08:33:01;;;;;;;8.97;7.63;;;10.70;99.20;;;;;;970338;143;27298;-74
2021/12/13 08:35:28;;;;;;;7.93;7.20;;;10.80;99.30;;;;;;974973;143;27278;-74
2021/12/13 08:37:55;;;;;;;8.50;7.70;;;10.80;99.30;;;;;;970396;143;27422;-74
2021/12/13 08:40:21;;;;;;;9.00;7.10;;;10.80;99.40;;;;;;969795;143;27355;-74
2021/12/13 08:42:48;;;;;;;9.03;7.43;;;10.80;99.40;;;;;;957114;143;27312;-74
2021/12/13 08:45:27;;;;;;;9.47;7.27;;;10.90;99.60;;;;;;961294;143;27776;-74
2021/12/13 08:47:53;;;;;;;8.30;7.40;;;11.00;99.70;;;;;;974818;144;27252;-74
2021/12/13 08:50:19;;;;;;;8.73;7.83;;;11.00;99.70;;;;;;981375;143;27491;-74
2021/12/13 08:52:46;;;;;;;8.47;7.67;;;11.10;99.70;;;;;;964318;146;27284;-74
2021/12/13 08:55:12;;;;;;;8.83;7.60;;;11.20;99.80;;;;;;975129;147;27309;-74
2021/12/13 08:57:39;;;;;;;8.93;6.70;;;11.30;99.80;;;;;;978033;146;27428;-74
2021/12/13 09:00:14;;;;;;;8.07;7.27;;;11.40;99.80;;;;;;943736;150;27332;-74
2021/12/13 09:02:41;;;;;;;8.10;7.30;;;11.40;99.70;;;;;;928984;153;27467;-74
2021/12/13 09:05:08;;;;;;;9.03;7.83;;;11.50;99.70;;;;;;968121;147;27256;-74
2021/12/13 09:07:34;;;;;;;9.90;7.83;;;11.60;99.60;;;;;;972001;147;27387;-74
2021/12/13 09:10:01;;;;;;;6.57;5.93;;;11.60;99.50;;;;;;975047;146;27213;-74
2021/12/13 09:12:27;;;;;;;8.43;7.50;;;11.70;99.40;;;;;;965932;146;27425;-74
2021/12/13 09:14:56;;;;;;;8.47;7.67;;;11.80;99.40;;;;;;990725;143;27282;-74
2021/12/13 09:17:32;;;;;;;8.93;7.93;;;11.80;99.20;;;;;;974827;143;27329;-75
2021/12/13 09:20:08;;;;;;;7.70;6.90;;;11.90;99.10;;;;;;969696;147;27293;-74
2021/12/13 09:22:37;;;;;;;8.07;7.27;;;11.90;99.00;;;;;;969047;143;27350;-73
2021/12/13 09:25:10;;;;;;;8.23;7.43;;;12.00;98.90;;;;;;973002;146;27312;-74
2021/12/13 09:27:48;;;;;;;10.67;8.13;;;12.00;98.90;;;;;;985939;143;27377;-74
2021/12/13 09:30:18;;;;;;;8.33;7.30;;;12.10;98.80;;;;;;979197;143;27295;-73
2021/12/13 09:32:53;;;;;;;9.10;8.17;;;12.10;98.90;;;;;;973682;147;27278;-74
2021/12/13 09:35:25;;;;;;;8.13;7.33;;;12.20;98.80;;;;;;974294;143;27319;-74
2021/12/13 09:37:52;;;;;;;11.30;8.33;;;12.30;98.80;;;;;;978540;146;27294;-74
2021/12/13 09:40:18;;;;;;;9.30;8.30;;;12.30;98.80;;;;;;981305;143;27726;-74
2021/12/13 09:42:51;;;;;;;8.77;7.87;;;12.40;98.60;;;;;;981104;143;27365;-74
2021/12/13 09:45:25;;;;;;;8.70;7.83;;;12.40;98.50;;;;;;966144;147;27366;-74
2021/12/13 09:47:50;;;;;;;8.60;7.30;;;12.50;98.40;;;;;;976891;147;27360;-74
2021/12/13 09:50:19;;;;;;;9.00;7.80;;;12.60;98.30;;;;;;975834;143;27321;-74
2021/12/13 09:52:49;;;;;;;7.97;7.20;;;12.60;98.10;;;;;;971250;147;27229;-74
2021/12/13 09:55:19;;;;;;;11.17;7.47;;;12.70;98.00;;;;;;981286;143;27449;-74
2021/12/13 09:58:02;;;;;;;8.47;7.67;;;12.70;98.00;;;;;;967477;146;27295;-74
2021/12/13 10:00:30;;;;;;;8.20;7.40;;;12.80;98.00;;;;;;984477;143;27195;-74
2021/12/13 10:02:56;;;;;;;8.97;8.07;;;12.90;97.80;;;;;;993006;143;27313;-74
2021/12/13 10:05:23;;;;;;;8.10;7.20;;;12.90;97.70;;;;;;974132;143;27334;-74
2021/12/13 10:07:49;;;;;;;11.37;7.60;;;13.00;97.60;;;;;;971356;143;27399;-74
2021/12/13 10:10:16;;;;;;;8.70;7.70;;;13.00;97.80;;;;;;959765;147;27319;-74
2021/12/13 10:12:44;;;;;;;7.97;7.13;;;13.00;97.40;;;;;;964095;147;27274;-74
2021/12/13 10:15:09;;;;;;;7.97;7.17;;;13.10;97.40;;;;;;970447;143;27283;-74
2021/12/13 10:17:36;;;;;;;9.33;8.03;;;13.10;97.40;;;;;;988299;143;27351;-74
2021/12/13 10:20:02;;;;;;;8.80;7.00;;;13.20;97.40;;;;;;968214;145;27315;-74
2021/12/13 10:22:29;;;;;;;9.80;7.70;;;13.20;97.40;;;;;;982855;143;27394;-74
2021/12/13 10:24:55;;;;;;;11.07;7.73;;;13.20;97.30;;;;;;970713;143;27332;-74
2021/12/13 10:27:22;;;;;;;8.15;7.45;;;13.30;97.20;;;;;;988228;143;27319;-74
2021/12/13 10:29:49;;;;;;;10.20;7.60;;;13.30;97.10;;;;;;986108;143;27280;-74
2021/12/13 10:32:24;;;;;;;8.17;7.37;;;13.40;97.00;;;;;;974182;143;27278;-74
2021/12/13 10:34:48;;;;;;;7.90;7.10;;;13.40;96.90;;;;;;976630;146;27305;-74
2021/12/13 10:37:26;;;;;;;8.50;7.07;;;13.50;96.70;;;;;;966328;147;27239;-74
2021/12/13 10:39:52;;;;;;;7.10;6.40;;;13.50;96.50;;;;;;975199;147;27284;-74
2021/12/13 10:42:19;;;;;;;7.30;6.57;;;13.50;96.30;;;;;;984925;143;27258;-74
2021/12/13 10:44:45;;;;;;;7.53;6.83;;;13.50;96.20;;;;;;982021;143;27366;-74
2021/12/13 10:47:18;;;;;;;7.73;6.97;;;13.60;96.30;;;;;;974214;146;27414;-74
2021/12/13 10:49:44;;;;;;;7.77;6.97;;;13.60;96.10;;;;;;972715;143;27774;-74
2021/12/13 10:52:11;;;;;;;7.93;6.60;;;13.60;96.00;;;;;;965861;147;27348;-74
2021/12/13 10:54:38;;;;;;;7.72;7.00;;;13.60;96.20;;;;;;981162;143;27249;-74
2021/12/13 10:57:04;;;;;;;8.43;6.53;;;13.60;95.70;;;;;;976863;143;27390;-74
2021/12/13 10:59:31;;;;;;;7.40;6.70;;;13.60;95.50;;;;;;970246;147;27233;-74
2021/12/13 11:01:57;;;;;;;6.87;6.17;;;13.60;95.40;;;;;;973370;143;27265;-74
2021/12/13 11:04:27;;;;;;;7.10;6.40;;;13.60;95.30;;;;;;974316;143;27248;-74
2021/12/13 11:06:53;;;;;;;7.23;6.60;;;13.60;95.10;;;;;;967411;145;27353;-74
2021/12/13 11:09:22;;;;;;;6.70;6.10;;;13.50;95.10;;;;;;981219;143;27264;-74
2021/12/13 11:11:52;;;;;;;7.90;7.17;;;13.50;95.20;;;;;;972751;145;27293;-74
2021/12/13 11:14:20;;;;;;;6.80;6.20;;;13.50;95.30;;;;;;964622;147;27256;-74
2021/12/13 11:16:45;;;;;;;7.33;6.63;;;13.50;95.40;;;;;;965087;146;27301;-74
2021/12/13 11:19:12;;;;;;;7.13;6.53;;;13.50;95.50;;;;;;969681;145;27638;-74
2021/12/13 11:21:38;;;;;;;7.97;7.17;;;13.50;95.70;;;;;;973761;146;27807;-74
2021/12/13 11:24:07;;;;;;;7.43;6.73;;;13.50;95.60;;;;;;972085;147;27240;-74
2021/12/13 11:26:34;;;;;;;7.13;6.43;;;13.60;95.40;;;;;;976793;143;27374;-74
2021/12/13 11:29:00;;;;;;;7.13;6.53;;;13.60;95.60;;;;;;976227;146;27388;-74
2021/12/13 11:31:29;;;;;;;7.00;6.40;;;13.60;95.80;;;;;;972181;143;27382;-74
2021/12/13 11:34:03;;;;;;;11.07;9.97;;;13.60;95.90;;;;;;972717;143;27276;-73
2021/12/13 11:36:32;;;;;;;7.87;7.07;;;13.70;95.70;;;;;;993976;143;27266;-74
2021/12/13 11:39:04;;;;;;;6.93;6.23;;;13.70;95.50;;;;;;979300;143;27298;-74
2021/12/13 11:42:04;;;;;;;7.43;6.37;;;13.80;95.30;;;;;;985219;143;27268;-74
2021/12/13 11:45:05;;;;;;;9.65;8.70;;;13.80;95.10;;;;;;965122;146;27401;-74
2021/12/13 11:47:40;;;;;;;9.00;8.10;;;13.80;94.90;;;;;;972939;143;27299;-74
2021/12/13 11:50:28;;;;;;;7.62;6.92;;;13.80;94.80;;;;;;933418;150;27359;-74
2021/12/13 11:52:58;;;;;;;8.30;7.50;;;13.80;94.80;;;;;;978760;142;27320;-74
2021/12/13 11:55:35;;;;;;;8.50;7.70;;;13.80;94.80;;;;;;979493;142;27332;-74
2021/12/13 11:58:30;;;;;;;6.80;6.20;;;13.80;94.70;;;;;;983921;142;27274;-74
2021/12/13 12:01:18;;;;;;;7.70;7.00;;;13.80;94.80;;;;;;978074;142;27373;-73
2021/12/13 12:04:00;;;;;;;6.73;6.13;;;13.80;94.80;;;;;;972959;145;27207;-73
2021/12/13 12:06:45;;;;;;;7.67;6.97;;;13.80;94.80;;;;;;979642;142;27261;-74
2021/12/13 12:09:39;;;;;;;8.00;7.20;;;13.70;94.60;;;;;;992438;142;27746;-74
2021/12/13 12:12:21;;;;;;;7.40;6.70;;;13.70;94.70;;;;;;991547;142;27280;-74
2021/12/13 12:14:47;;;;;;;7.10;6.40;;;13.70;94.80;;;;;;977378;142;27389;-74
2021/12/13 12:17:14;;;;;;;7.17;6.53;;;13.70;94.80;;;;;;978098;142;27297;-74
2021/12/13 12:19:41;;;;;;;6.77;6.20;;;13.60;95.10;;;;;;975603;146;27575;-74
2021/12/13 12:22:16;;;;;;;7.60;6.83;;;13.60;94.80;;;;;;984591;142;27279;-74
2021/12/13 12:24:43;;;;;;;7.03;6.17;;;13.60;94.80;;;;;;990198;142;27357;-74
2021/12/13 12:27:12;;;;;;;7.10;6.00;;;13.70;94.90;;;;;;974111;142;27357;-74
2021/12/13 12:29:39;;;;;;;6.93;6.23;;;13.70;94.80;;;;;;988491;142;27244;-74
2021/12/13 12:32:08;;;;;;;6.90;6.30;;;13.70;94.70;;;;;;988607;142;27351;-74
2021/12/13 12:34:35;;;;;;;6.87;6.20;;;13.70;94.70;;;;;;974523;142;27611;-74
2021/12/13 12:37:07;;;;;;;5.80;5.30;;;13.70;94.60;;;;;;977500;142;27333;-74
2021/12/13 12:39:40;;;;;;;7.10;6.20;;;13.80;94.80;;;;;;957306;147;27382;-74
2021/12/13 12:42:06;;;;;;;5.83;5.23;;;13.80;94.60;;;;;;977976;146;27280;-74
2021/12/13 12:44:33;;;;;;;6.40;5.70;;;13.80;94.50;;;;;;978141;146;27390;-74
2021/12/13 12:47:00;;;;;;;6.17;5.57;;;13.90;94.30;;;;;;989533;142;27245;-74
2021/12/13 12:49:26;;;;;;;13.70;5.90;;;13.90;94.20;;;;;;979883;142;27289;-74
2021/12/13 12:51:53;;;;;;;7.13;6.20;;;13.90;94.10;;;;;;978709;142;27316;-74
2021/12/13 12:54:19;;;;;;;6.40;5.78;;;13.90;94.00;;;;;;976827;142;27364;-74
2021/12/13 12:56:52;;;;;;;6.70;6.00;;;13.90;93.90;;;;;;994496;142;27288;-74
2021/12/13 12:59:18;;;;;;;5.97;5.27;;;13.90;93.90;;;;;;996501;142;27284;-74
2021/12/13 13:02:00;;;;;;;6.37;5.87;;;13.90;93.90;;;;;;988501;142;27252;-74
2021/12/13 13:04:35;;;;;;;6.47;5.53;;;13.90;93.90;;;;;;992298;142;27237;-74
2021/12/13 13:07:10;;;;;;;5.90;5.40;;;13.90;93.90;;;;;;997102;142;27337;-74
2021/12/13 13:09:51;;;;;;;6.57;4.90;;;13.90;93.80;;;;;;970222;145;27363;-74